sensor_id;sensor_type;location;lat;lon;timestamp;pressure;altitude;pressure_sealevel;temperature;humidity
14295;BME280;7231;59.370;18.016;2022-12-24T00:01:07;100337.84;;;-5.39;100.00
14295;BME280;7231;59.370;18.016;2022-12-24T00:03:37;100365.31;;;-5.27;100.00
14295;BME280;7231;59.370;18.016;2022-12-24T00:06:05;100350.50;;;-5.41;100.00
14295;BME280;7231;59.370;18.016;2022-12-24T00:08:34;100350.25;;;-5.44;100.00
14295;BME280;7231;59.370;18.016;2022-12-24T00:11:02;100372.47;;;-5.33;100.00
14295;BME280;7231;59.370;18.016;2022-12-24T00:13:30;100366.97;;;-5.37;100.00
14295;BME280;7231;59.370;18.016;2022-12-24T00:15:58;100369.41;;;-5.39;100.00
14295;BME280;7231;59.370;18.016;2022-12-24T00:18:28;100372.59;;;-5.41;100.00
14295;BME280;7231;59.370;18.016;2022-12-24T00:20:57;100379.38;;;-5.42;100.00
14295;BME280;7231;59.370;18.016;2022-12-24T00:23:27;100398.16;;;-5.41;100.00
14295;BME280;7231;59.370;18.016;2022-12-24T00:25:55;100394.56;;;-5.43;100.00
14295;BME280;7231;59.370;18.016;2022-12-24T00:28:23;100391.13;;;-5.44;100.00
14295;BME280;7231;59.370;18.016;2022-12-24T00:30:51;100354.09;;;-5.69;100.00
14295;BME280;7231;59.370;18.016;2022-12-24T00:33:19;100388.94;;;-5.49;100.00
14295;BME280;7231;59.370;18.016;2022-12-24T00:35:51;100385.50;;;-5.50;100.00
14295;BME280;7231;59.370;18.016;2022-12-24T00:38:21;100387.94;;;-5.51;100.00
14295;BME280;7231;59.370;18.016;2022-12-24T00:40:48;100400.69;;;-5.51;100.00
14295;BME280;7231;59.370;18.016;2022-12-24T00:43:16;100413.47;;;-5.51;100.00
14295;BME280;7231;59.370;18.016;2022-12-24T00:45:45;100416.78;;;-5.52;100.00
14295;BME280;7231;59.370;18.016;2022-12-24T00:48:13;100378.22;;;-5.76;100.00
14295;BME280;7231;59.370;18.016;2022-12-24T00:50:41;100422.66;;;-5.53;100.00
14295;BME280;7231;59.370;18.016;2022-12-24T00:53:10;100375.66;;;-5.86;100.00
14295;BME280;7231;59.370;18.016;2022-12-24T00:55:40;100414.09;;;-5.54;100.00
14295;BME280;7231;59.370;18.016;2022-12-24T00:58:07;100416.66;;;-5.54;100.00
14295;BME280;7231;59.370;18.016;2022-12-24T01:00:36;100411.41;;;-5.56;100.00
14295;BME280;7231;59.370;18.016;2022-12-24T01:03:03;100419.09;;;-5.56;100.00
14295;BME280;7231;59.370;18.016;2022-12-24T01:05:32;100398.38;;;-5.69;100.00
14295;BME280;7231;59.370;18.016;2022-12-24T01:07:59;100331.22;;;-6.08;100.00
14295;BME280;7231;59.370;18.016;2022-12-24T01:10:27;100381.00;;;-5.83;100.00
14295;BME280;7231;59.370;18.016;2022-12-24T01:12:56;100429.03;;;-5.59;100.00
14295;BME280;7231;59.370;18.016;2022-12-24T01:15:24;100429.16;;;-5.57;100.00
14295;BME280;7231;59.370;18.016;2022-12-24T01:17:52;100427.50;;;-5.57;100.00
14295;BME280;7231;59.370;18.016;2022-12-24T01:20:20;100438.63;;;-5.56;100.00
14295;BME280;7231;59.370;18.016;2022-12-24T01:22:48;100435.94;;;-5.58;100.00
14295;BME280;7231;59.370;18.016;2022-12-24T01:25:16;100432.50;;;-5.58;100.00
14295;BME280;7231;59.370;18.016;2022-12-24T01:27:44;100440.16;;;-5.58;100.00
14295;BME280;7231;59.370;18.016;2022-12-24T01:30:13;100208.50;;;-7.01;100.00
14295;BME280;7231;59.370;18.016;2022-12-24T01:32:41;100445.13;;;-5.60;100.00
14295;BME280;7231;59.370;18.016;2022-12-24T01:35:10;100455.97;;;-5.62;100.00
14295;BME280;7231;59.370;18.016;2022-12-24T01:37:38;100447.69;;;-5.60;100.00
14295;BME280;7231;59.370;18.016;2022-12-24T01:40:07;100449.47;;;-5.59;100.00
14295;BME280;7231;59.370;18.016;2022-12-24T01:42:54;100451.75;;;-5.62;100.00
14295;BME280;7231;59.370;18.016;2022-12-24T01:45:46;100455.72;;;-5.65;100.00
14295;BME280;7231;59.370;18.016;2022-12-24T01:48:33;100458.16;;;-5.67;100.00
14295;BME280;7231;59.370;18.016;2022-12-24T01:51:07;100388.00;;;-6.11;100.00
14295;BME280;7231;59.370;18.016;2022-12-24T01:53:37;100459.41;;;-5.72;100.00
14295;BME280;7231;59.370;18.016;2022-12-24T01:56:06;100457.47;;;-5.74;100.00
14295;BME280;7231;59.370;18.016;2022-12-24T01:58:35;100460.66;;;-5.77;100.00
14295;BME280;7231;59.370;18.016;2022-12-24T02:01:06;100383.78;;;-6.20;100.00
14295;BME280;7231;59.370;18.016;2022-12-24T02:03:34;100460.41;;;-5.80;100.00
14295;BME280;7231;59.370;18.016;2022-12-24T02:06:03;100462.47;;;-5.76;100.00
14295;BME280;7231;59.370;18.016;2022-12-24T02:08:32;100471.16;;;-5.74;100.00
14295;BME280;7231;59.370;18.016;2022-12-24T02:11:14;100396.53;;;-6.20;100.00
14295;BME280;7231;59.370;18.016;2022-12-24T02:13:46;100473.69;;;-5.74;100.00
14295;BME280;7231;59.370;18.016;2022-12-24T02:16:28;100480.72;;;-5.71;100.00
14295;BME280;7231;59.370;18.016;2022-12-24T02:19:15;100484.03;;;-5.72;100.00
14295;BME280;7231;59.370;18.016;2022-12-24T02:21:57;100448.91;;;-5.95;100.00
14295;BME280;7231;59.370;18.016;2022-12-24T02:24:53;100466.28;;;-5.81;100.00
14295;BME280;7231;59.370;18.016;2022-12-24T02:27:33;100492.88;;;-5.69;100.00
14295;BME280;7231;59.370;18.016;2022-12-24T02:30:13;100494.53;;;-5.69;100.00
14295;BME280;7231;59.370;18.016;2022-12-24T02:32:55;100469.97;;;-5.88;100.00
14295;BME280;7231;59.370;18.016;2022-12-24T02:35:35;100479.03;;;-5.81;100.00
14295;BME280;7231;59.370;18.016;2022-12-24T02:38:10;100362.00;;;-6.46;100.00
14295;BME280;7231;59.370;18.016;2022-12-24T02:40:45;100504.09;;;-5.67;100.00
14295;BME280;7231;59.370;18.016;2022-12-24T02:43:19;100299.78;;;-6.87;100.00
14295;BME280;7231;59.370;18.016;2022-12-24T02:45:54;100306.31;;;-6.80;100.00
14295;BME280;7231;59.370;18.016;2022-12-24T02:48:26;100504.34;;;-5.74;100.00
14295;BME280;7231;59.370;18.016;2022-12-24T02:51:02;100428.56;;;-6.14;100.00
14295;BME280;7231;59.370;18.016;2022-12-24T02:53:31;100496.69;;;-5.74;100.00
14295;BME280;7231;59.370;18.016;2022-12-24T02:59:14;100507.38;;;-5.78;100.00
14295;BME280;7231;59.370;18.016;2022-12-24T03:01:53;100511.75;;;-5.77;100.00
14295;BME280;7231;59.370;18.016;2022-12-24T03:04:30;100521.19;;;-5.76;100.00
14295;BME280;7231;59.370;18.016;2022-12-24T03:07:13;100526.28;;;-5.76;100.00
14295;BME280;7231;59.370;18.016;2022-12-24T03:09:52;100530.38;;;-5.78;100.00
14295;BME280;7231;59.370;18.016;2022-12-24T03:12:30;100456.91;;;-6.40;100.00
14295;BME280;7231;59.370;18.016;2022-12-24T03:15:00;100552.94;;;-5.82;100.00
14295;BME280;7231;59.370;18.016;2022-12-24T03:17:34;100555.38;;;-5.84;100.00
14295;BME280;7231;59.370;18.016;2022-12-24T03:20:04;100393.09;;;-6.79;100.00
14295;BME280;7231;59.370;18.016;2022-12-24T03:22:33;100556.88;;;-5.86;100.00
14295;BME280;7231;59.370;18.016;2022-12-24T03:25:02;100562.75;;;-5.87;100.00
14295;BME280;7231;59.370;18.016;2022-12-24T03:27:32;100571.97;;;-5.89;100.00
14295;BME280;7231;59.370;18.016;2022-12-24T03:30:04;100568.25;;;-5.93;100.00
14295;BME280;7231;59.370;18.016;2022-12-24T03:32:36;100576.53;;;-5.95;100.00
14295;BME280;7231;59.370;18.016;2022-12-24T03:35:04;100582.41;;;-5.96;100.00
14295;BME280;7231;59.370;18.016;2022-12-24T03:37:33;100574.47;;;-5.99;100.00
14295;BME280;7231;59.370;18.016;2022-12-24T03:40:01;100579.56;;;-5.99;100.00
14295;BME280;7231;59.370;18.016;2022-12-24T03:42:29;100572.69;;;-6.00;100.00
14295;BME280;7231;59.370;18.016;2022-12-24T03:44:56;100577.94;;;-5.99;100.00
14295;BME280;7231;59.370;18.016;2022-12-24T03:47:24;100552.69;;;-6.14;100.00
14295;BME280;7231;59.370;18.016;2022-12-24T03:49:54;100580.34;;;-6.00;100.00
14295;BME280;7231;59.370;18.016;2022-12-24T03:52:22;100579.56;;;-5.99;100.00
14295;BME280;7231;59.370;18.016;2022-12-24T03:54:50;100579.72;;;-5.98;100.00
14295;BME280;7231;59.370;18.016;2022-12-24T03:57:18;100560.34;;;-6.14;100.00
14295;BME280;7231;59.370;18.016;2022-12-24T03:59:45;100581.84;;;-6.02;100.00
14295;BME280;7231;59.370;18.016;2022-12-24T04:02:13;100589.38;;;-6.04;100.00
14295;BME280;7231;59.370;18.016;2022-12-24T04:04:42;100585.94;;;-6.04;100.00
14295;BME280;7231;59.370;18.016;2022-12-24T04:07:11;100593.72;;;-6.03;100.00
14295;BME280;7231;59.370;18.016;2022-12-24T04:09:39;100602.41;;;-6.01;100.00
14295;BME280;7231;59.370;18.016;2022-12-24T04:12:07;100584.63;;;-6.09;100.00
14295;BME280;7231;59.370;18.016;2022-12-24T04:14:35;100603.31;;;-6.00;100.00
14295;BME280;7231;59.370;18.016;2022-12-24T04:17:03;100604.84;;;-6.02;100.00
14295;BME280;7231;59.370;18.016;2022-12-24T04:19:31;100612.50;;;-6.02;100.00
14295;BME280;7231;59.370;18.016;2022-12-24T04:21:59;100613.53;;;-6.00;100.00
14295;BME280;7231;59.370;18.016;2022-12-24T04:24:28;100591.25;;;-6.11;100.00
14295;BME280;7231;59.370;18.016;2022-12-24T04:26:56;100609.44;;;-5.98;100.00
14295;BME280;7231;59.370;18.016;2022-12-24T04:29:24;100612.00;;;-5.98;100.00
14295;BME280;7231;59.370;18.016;2022-12-24T04:31:52;100613.66;;;-5.99;100.00
14295;BME280;7231;59.370;18.016;2022-12-24T04:34:20;100611.72;;;-6.01;100.00
14295;BME280;7231;59.370;18.016;2022-12-24T04:36:48;100616.84;;;-6.01;100.00
14295;BME280;7231;59.370;18.016;2022-12-24T04:39:16;100607.25;;;-6.04;100.00
14295;BME280;7231;59.370;18.016;2022-12-24T04:41:45;100605.47;;;-6.05;100.00
14295;BME280;7231;59.370;18.016;2022-12-24T04:44:13;100604.56;;;-6.05;100.00
14295;BME280;7231;59.370;18.016;2022-12-24T04:46:41;100599.31;;;-6.07;100.00
14295;BME280;7231;59.370;18.016;2022-12-24T04:49:09;100603.53;;;-6.07;100.00
14295;BME280;7231;59.370;18.016;2022-12-24T04:51:37;100598.16;;;-6.10;100.00
14295;BME280;7231;59.370;18.016;2022-12-24T04:54:05;100608.50;;;-6.09;100.00
14295;BME280;7231;59.370;18.016;2022-12-24T04:56:33;100608.50;;;-6.09;100.00
14295;BME280;7231;59.370;18.016;2022-12-24T04:59:02;100612.84;;;-6.08;100.00
14295;BME280;7231;59.370;18.016;2022-12-24T05:01:31;100518.00;;;-6.60;100.00
14295;BME280;7231;59.370;18.016;2022-12-24T05:04:00;100607.72;;;-6.08;100.00
14295;BME280;7231;59.370;18.016;2022-12-24T05:06:30;100509.66;;;-6.68;100.00
14295;BME280;7231;59.370;18.016;2022-12-24T05:08:59;100600.34;;;-6.24;100.00
14295;BME280;7231;59.370;18.016;2022-12-24T05:11:27;100622.91;;;-6.09;100.00
14295;BME280;7231;59.370;18.016;2022-12-24T05:13:55;100636.84;;;-6.06;100.00
14295;BME280;7231;59.370;18.016;2022-12-24T05:16:24;100644.34;;;-6.07;100.00
14295;BME280;7231;59.370;18.016;2022-12-24T05:18:53;100636.69;;;-6.07;100.00
14295;BME280;7231;59.370;18.016;2022-12-24T05:21:22;100642.69;;;-6.07;100.00
14295;BME280;7231;59.370;18.016;2022-12-24T05:23:51;100645.38;;;-6.05;100.00
14295;BME280;7231;59.370;18.016;2022-12-24T05:26:39;100641.81;;;-6.07;100.00
14295;BME280;7231;59.370;18.016;2022-12-24T05:29:09;100650.22;;;-6.08;100.00
14295;BME280;7231;59.370;18.016;2022-12-24T05:31:40;100650.97;;;-6.09;100.00
14295;BME280;7231;59.370;18.016;2022-12-24T05:34:10;100611.53;;;-6.32;100.00
14295;BME280;7231;59.370;18.016;2022-12-24T05:36:39;100642.16;;;-6.13;100.00
14295;BME280;7231;59.370;18.016;2022-12-24T05:39:09;100646.50;;;-6.12;100.00
14295;BME280;7231;59.370;18.016;2022-12-24T05:41:41;100652.50;;;-6.11;100.00
14295;BME280;7231;59.370;18.016;2022-12-24T05:44:09;100648.91;;;-6.13;100.00
14295;BME280;7231;59.370;18.016;2022-12-24T05:46:39;100626.63;;;-6.25;100.00
14295;BME280;7231;59.370;18.016;2022-12-24T05:49:07;100594.09;;;-6.46;100.00
14295;BME280;7231;59.370;18.016;2022-12-24T05:51:35;100661.19;;;-6.09;100.00
14295;BME280;7231;59.370;18.016;2022-12-24T05:54:03;100667.94;;;-6.10;100.00
14295;BME280;7231;59.370;18.016;2022-12-24T05:56:31;100661.06;;;-6.11;100.00
14295;BME280;7231;59.370;18.016;2022-12-24T05:59:00;100672.28;;;-6.09;100.00
14295;BME280;7231;59.370;18.016;2022-12-24T06:01:27;100669.88;;;-6.07;100.00
14295;BME280;7231;59.370;18.016;2022-12-24T06:03:57;100666.72;;;-6.05;100.00
14295;BME280;7231;59.370;18.016;2022-12-24T06:06:26;100676.28;;;-6.02;100.00
14295;BME280;7231;59.370;18.016;2022-12-24T06:08:55;100688.03;;;-6.04;100.00
14295;BME280;7231;59.370;18.016;2022-12-24T06:11:24;100686.22;;;-6.05;100.00
14295;BME280;7231;59.370;18.016;2022-12-24T06:13:52;100683.66;;;-6.05;100.00
14295;BME280;7231;59.370;18.016;2022-12-24T06:16:21;100693.88;;;-6.05;100.00
14295;BME280;7231;59.370;18.016;2022-12-24T06:18:50;100699.75;;;-6.06;100.00
14295;BME280;7231;59.370;18.016;2022-12-24T06:21:19;100702.16;;;-6.08;100.00
14295;BME280;7231;59.370;18.016;2022-12-24T06:23:47;100706.38;;;-6.08;100.00
14295;BME280;7231;59.370;18.016;2022-12-24T06:26:17;100638.19;;;-6.47;100.00
14295;BME280;7231;59.370;18.016;2022-12-24T06:28:47;100708.03;;;-6.09;100.00
14295;BME280;7231;59.370;18.016;2022-12-24T06:31:17;100707.88;;;-6.10;100.00
14295;BME280;7231;59.370;18.016;2022-12-24T06:33:46;100697.72;;;-6.19;100.00
14295;BME280;7231;59.370;18.016;2022-12-24T06:36:17;100717.06;;;-6.12;100.00
14295;BME280;7231;59.370;18.016;2022-12-24T06:38:47;100716.00;;;-6.14;100.00
14295;BME280;7231;59.370;18.016;2022-12-24T06:41:16;100719.31;;;-6.15;100.00
14295;BME280;7231;59.370;18.016;2022-12-24T06:43:45;100718.44;;;-6.16;100.00
14295;BME280;7231;59.370;18.016;2022-12-24T06:46:13;100722.91;;;-6.13;100.00
14295;BME280;7231;59.370;18.016;2022-12-24T06:48:42;100727.13;;;-6.14;100.00
14295;BME280;7231;59.370;18.016;2022-12-24T06:51:10;100644.59;;;-6.61;100.00
14295;BME280;7231;59.370;18.016;2022-12-24T06:53:39;100712.91;;;-6.20;100.00
14295;BME280;7231;59.370;18.016;2022-12-24T06:56:10;100734.03;;;-6.13;100.00
14295;BME280;7231;59.370;18.016;2022-12-24T06:58:39;100733.13;;;-6.13;100.00
14295;BME280;7231;59.370;18.016;2022-12-24T07:01:09;100736.44;;;-6.14;100.00
14295;BME280;7231;59.370;18.016;2022-12-24T07:03:37;100739.75;;;-6.15;100.00
14295;BME280;7231;59.370;18.016;2022-12-24T07:06:06;100717.44;;;-6.27;100.00
14295;BME280;7231;59.370;18.016;2022-12-24T07:08:37;100742.72;;;-6.11;100.00
14295;BME280;7231;59.370;18.016;2022-12-24T07:11:05;100743.59;;;-6.10;100.00
14295;BME280;7231;59.370;18.016;2022-12-24T07:13:34;100747.06;;;-6.10;100.00
14295;BME280;7231;59.370;18.016;2022-12-24T07:16:03;100754.72;;;-6.10;100.00
14295;BME280;7231;59.370;18.016;2022-12-24T07:18:32;100759.19;;;-6.07;100.00
14295;BME280;7231;59.370;18.016;2022-12-24T07:21:02;100709.84;;;-6.35;100.00
14295;BME280;7231;59.370;18.016;2022-12-24T07:23:30;100768.78;;;-6.05;100.00
14295;BME280;7231;59.370;18.016;2022-12-24T07:25:59;100782.72;;;-6.01;100.00
14295;BME280;7231;59.370;18.016;2022-12-24T07:28:28;100785.44;;;-6.00;100.00
14295;BME280;7231;59.370;18.016;2022-12-24T07:30:58;100761.47;;;-6.10;100.00
14295;BME280;7231;59.370;18.016;2022-12-24T07:33:26;100789.78;;;-5.99;100.00
14295;BME280;7231;59.370;18.016;2022-12-24T07:35:58;100787.97;;;-6.00;100.00
14295;BME280;7231;59.370;18.016;2022-12-24T07:38:27;100784.53;;;-6.00;100.00
14295;BME280;7231;59.370;18.016;2022-12-24T07:40:55;100793.69;;;-6.02;100.00
14295;BME280;7231;59.370;18.016;2022-12-24T07:43:23;100790.59;;;-6.08;100.00
14295;BME280;7231;59.370;18.016;2022-12-24T07:45:54;100787.88;;;-6.10;100.00
14295;BME280;7231;59.370;18.016;2022-12-24T07:48:25;100790.31;;;-6.11;100.00
14295;BME280;7231;59.370;18.016;2022-12-24T07:50:54;100796.31;;;-6.11;100.00
14295;BME280;7231;59.370;18.016;2022-12-24T07:53:23;100809.97;;;-6.10;100.00
14295;BME280;7231;59.370;18.016;2022-12-24T07:55:52;100809.19;;;-6.09;100.00
14295;BME280;7231;59.370;18.016;2022-12-24T07:58:20;100731.84;;;-6.55;100.00
14295;BME280;7231;59.370;18.016;2022-12-24T08:00:49;100809.78;;;-6.03;100.00
14295;BME280;7231;59.370;18.016;2022-12-24T08:03:21;100816.81;;;-6.01;100.00
14295;BME280;7231;59.370;18.016;2022-12-24T08:05:51;100815.91;;;-6.01;100.00
14295;BME280;7231;59.370;18.016;2022-12-24T08:08:19;100795.25;;;-6.13;100.00
14295;BME280;7231;59.370;18.016;2022-12-24T08:10:48;100821.59;;;-5.95;100.00
14295;BME280;7231;59.370;18.016;2022-12-24T08:13:16;100787.41;;;-6.06;100.00
14295;BME280;7231;59.370;18.016;2022-12-24T08:15:43;100830.06;;;-5.86;100.00
14295;BME280;7231;59.370;18.016;2022-12-24T08:18:12;100832.75;;;-5.84;100.00
14295;BME280;7231;59.370;18.016;2022-12-24T08:20:40;100839.03;;;-5.81;100.00
14295;BME280;7231;59.370;18.016;2022-12-24T08:23:09;100825.72;;;-5.87;100.00
14295;BME280;7231;59.370;18.016;2022-12-24T08:25:41;100840.06;;;-5.79;100.00
14295;BME280;7231;59.370;18.016;2022-12-24T08:28:09;100845.03;;;-5.80;100.00
14295;BME280;7231;59.370;18.016;2022-12-24T08:30:36;100850.91;;;-5.81;100.00
14295;BME280;7231;59.370;18.016;2022-12-24T08:33:05;100850.75;;;-5.83;100.00
14295;BME280;7231;59.370;18.016;2022-12-24T08:35:32;100807.06;;;-6.05;100.00
14295;BME280;7231;59.370;18.016;2022-12-24T08:38:00;100848.97;;;-5.84;100.00
14295;BME280;7231;59.370;18.016;2022-12-24T08:40:30;100857.38;;;-5.85;100.00
14295;BME280;7231;59.370;18.016;2022-12-24T08:42:58;100843.56;;;-5.87;100.00
14295;BME280;7231;59.370;18.016;2022-12-24T08:45:27;100852.00;;;-5.88;100.00
14295;BME280;7231;59.370;18.016;2022-12-24T08:48:04;100845.13;;;-5.89;100.00
14295;BME280;7231;59.370;18.016;2022-12-24T08:50:32;100822.53;;;-6.03;100.00
14295;BME280;7231;59.370;18.016;2022-12-24T08:53:00;100856.34;;;-5.87;100.00
14295;BME280;7231;59.370;18.016;2022-12-24T08:55:28;100863.38;;;-5.84;100.00
14295;BME280;7231;59.370;18.016;2022-12-24T08:57:58;100861.13;;;-5.81;100.00
14295;BME280;7231;59.370;18.016;2022-12-24T09:00:27;100856.28;;;-5.78;100.00
14295;BME280;7231;59.370;18.016;2022-12-24T09:02:55;100766.38;;;-6.31;100.00
14295;BME280;7231;59.370;18.016;2022-12-24T09:05:23;100867.34;;;-5.69;100.00
14295;BME280;7231;59.370;18.016;2022-12-24T09:07:52;100791.66;;;-6.15;100.00
14295;BME280;7231;59.370;18.016;2022-12-24T09:10:20;100886.34;;;-5.57;100.00
14295;BME280;7231;59.370;18.016;2022-12-24T09:12:49;100839.47;;;-5.76;100.00
14295;BME280;7231;59.370;18.016;2022-12-24T09:15:19;100891.22;;;-5.41;100.00
14295;BME280;7231;59.370;18.016;2022-12-24T09:17:47;100880.59;;;-5.27;100.00
14295;BME280;7231;59.370;18.016;2022-12-24T09:20:14;100899.69;;;-4.95;100.00
14295;BME280;7231;59.370;18.016;2022-12-24T09:22:42;100897.00;;;-4.77;100.00
14295;BME280;7231;59.370;18.016;2022-12-24T09:25:10;100880.66;;;-4.69;100.00
14295;BME280;7231;59.370;18.016;2022-12-24T09:27:38;100833.94;;;-4.77;100.00
14295;BME280;7231;59.370;18.016;2022-12-24T09:30:07;100911.34;;;-4.11;100.00
14295;BME280;7231;59.370;18.016;2022-12-24T09:32:37;100906.19;;;-3.82;100.00
14295;BME280;7231;59.370;18.016;2022-12-24T09:35:05;100900.97;;;-3.53;100.00
14295;BME280;7231;59.370;18.016;2022-12-24T09:37:33;100899.03;;;-3.25;100.00
14295;BME280;7231;59.370;18.016;2022-12-24T09:40:01;100907.47;;;-2.96;100.00
14295;BME280;7231;59.370;18.016;2022-12-24T09:42:39;100888.34;;;-2.89;100.00
14295;BME280;7231;59.370;18.016;2022-12-24T09:45:15;100903.88;;;-2.56;100.00
14295;BME280;7231;59.370;18.016;2022-12-24T09:47:48;100903.13;;;-2.55;100.00
14295;BME280;7231;59.370;18.016;2022-12-24T09:50:25;100900.84;;;-2.62;100.00
14295;BME280;7231;59.370;18.016;2022-12-24T09:52:59;100907.53;;;-2.64;100.00
14295;BME280;7231;59.370;18.016;2022-12-24T09:55:31;100928.22;;;-2.73;100.00
14295;BME280;7231;59.370;18.016;2022-12-24T09:58:01;100927.22;;;-2.95;100.00
14295;BME280;7231;59.370;18.016;2022-12-24T10:00:35;100928.41;;;-3.12;100.00
14295;BME280;7231;59.370;18.016;2022-12-24T10:03:13;100917.88;;;-3.45;100.00
14295;BME280;7231;59.370;18.016;2022-12-24T10:05:47;100937.59;;;-3.54;100.00
14295;BME280;7231;59.370;18.016;2022-12-24T10:08:24;100926.03;;;-3.80;100.00
14295;BME280;7231;59.370;18.016;2022-12-24T10:10:57;100783.72;;;-4.66;100.00
14295;BME280;7231;59.370;18.016;2022-12-24T10:13:37;100924.09;;;-3.93;100.00
14295;BME280;7231;59.370;18.016;2022-12-24T10:16:14;100940.38;;;-3.82;100.00
14295;BME280;7231;59.370;18.016;2022-12-24T10:18:54;100940.63;;;-3.89;100.00
14295;BME280;7231;59.370;18.016;2022-12-24T10:21:29;100942.66;;;-3.95;100.00
14295;BME280;7231;59.370;18.016;2022-12-24T10:24:03;100949.78;;;-4.01;100.00
14295;BME280;7231;59.370;18.016;2022-12-24T10:26:37;100962.81;;;-4.08;100.00
14295;BME280;7231;59.370;18.016;2022-12-24T10:29:12;100957.94;;;-4.15;100.00
14295;BME280;7231;59.370;18.016;2022-12-24T10:31:47;100854.00;;;-4.81;100.00
14295;BME280;7231;59.370;18.016;2022-12-24T10:34:21;100954.84;;;-4.21;100.00
14295;BME280;7231;59.370;18.016;2022-12-24T10:36:50;100950.34;;;-4.24;100.00
14295;BME280;7231;59.370;18.016;2022-12-24T10:39:20;100956.38;;;-4.23;100.00
14295;BME280;7231;59.370;18.016;2022-12-24T10:41:51;100964.03;;;-4.23;100.00
14295;BME280;7231;59.370;18.016;2022-12-24T10:44:23;100938.75;;;-4.39;100.00
14295;BME280;7231;59.370;18.016;2022-12-24T10:46:53;100967.38;;;-4.25;100.00
14295;BME280;7231;59.370;18.016;2022-12-24T10:49:29;100875.91;;;-4.75;100.00
14295;BME280;7231;59.370;18.016;2022-12-24T10:52:03;100972.63;;;-4.23;100.00
14295;BME280;7231;59.370;18.016;2022-12-24T10:54:32;100927.09;;;-4.46;100.00
14295;BME280;7231;59.370;18.016;2022-12-24T10:57:22;100939.03;;;-4.36;100.00
14295;BME280;7231;59.370;18.016;2022-12-24T10:59:53;100926.19;;;-4.46;100.00
14295;BME280;7231;59.370;18.016;2022-12-24T11:02:27;100980.22;;;-4.14;100.00
14295;BME280;7231;59.370;18.016;2022-12-24T11:04:58;100960.72;;;-4.22;99.61
14295;BME280;7231;59.370;18.016;2022-12-24T11:07:30;100904.78;;;-4.57;99.81
14295;BME280;7231;59.370;18.016;2022-12-24T11:10:00;100976.13;;;-4.12;99.63
14295;BME280;7231;59.370;18.016;2022-12-24T11:12:30;100986.16;;;-4.05;100.00
14295;BME280;7231;59.370;18.016;2022-12-24T11:15:01;100987.19;;;-4.03;99.52
14295;BME280;7231;59.370;18.016;2022-12-24T11:17:30;100980.25;;;-4.04;99.35
14295;BME280;7231;59.370;18.016;2022-12-24T11:20:00;100957.94;;;-4.15;99.54
14295;BME280;7231;59.370;18.016;2022-12-24T11:22:32;100984.88;;;-4.00;99.69
14295;BME280;7231;59.370;18.016;2022-12-24T11:25:04;100980.66;;;-4.00;99.56
14295;BME280;7231;59.370;18.016;2022-12-24T11:27:39;100986.81;;;-3.98;99.74
14295;BME280;7231;59.370;18.016;2022-12-24T11:30:19;100847.28;;;-4.71;99.45
14295;BME280;7231;59.370;18.016;2022-12-24T11:32:49;100990.53;;;-3.94;99.24
14295;BME280;7231;59.370;18.016;2022-12-24T11:35:23;100988.25;;;-3.91;99.49
14295;BME280;7231;59.370;18.016;2022-12-24T11:38:08;100985.81;;;-3.89;99.30
14295;BME280;7231;59.370;18.016;2022-12-24T11:40:40;100980.06;;;-3.87;99.49
14295;BME280;7231;59.370;18.016;2022-12-24T11:43:14;100988.78;;;-3.85;99.18
14295;BME280;7231;59.370;18.016;2022-12-24T11:45:48;100989.81;;;-3.83;99.15
14295;BME280;7231;59.370;18.016;2022-12-24T11:48:27;100966.72;;;-3.93;99.25
14295;BME280;7231;59.370;18.016;2022-12-24T11:50:58;100996.75;;;-3.72;99.62
14295;BME280;7231;59.370;18.016;2022-12-24T11:53:33;101002.41;;;-3.66;99.09
14295;BME280;7231;59.370;18.016;2022-12-24T11:56:07;101000.88;;;-3.64;99.43
14295;BME280;7231;59.370;18.016;2022-12-24T11:58:43;101013.47;;;-3.56;99.19
14295;BME280;7231;59.370;18.016;2022-12-24T12:01:16;101006.56;;;-3.47;99.20
14295;BME280;7231;59.370;18.016;2022-12-24T12:03:47;100912.56;;;-3.87;99.07
14295;BME280;7231;59.370;18.016;2022-12-24T12:06:25;101003.41;;;-3.14;99.94
14295;BME280;7231;59.370;18.016;2022-12-24T12:08:56;101005.34;;;-2.91;100.00
14295;BME280;7231;59.370;18.016;2022-12-24T12:11:27;101011.38;;;-2.71;100.00
14295;BME280;7231;59.370;18.016;2022-12-24T12:13:58;101011.31;;;-2.50;100.00
14295;BME280;7231;59.370;18.016;2022-12-24T12:16:31;100983.56;;;-2.44;100.00
14295;BME280;7231;59.370;18.016;2022-12-24T12:19:24;101010.91;;;-2.03;100.00
14295;BME280;7231;59.370;18.016;2022-12-24T12:21:53;101007.00;;;-1.87;100.00
14295;BME280;7231;59.370;18.016;2022-12-24T12:24:23;100952.38;;;-2.07;100.00
14295;BME280;7231;59.370;18.016;2022-12-24T12:27:03;101021.06;;;-1.72;100.00
14295;BME280;7231;59.370;18.016;2022-12-24T12:29:38;101025.38;;;-1.83;100.00
14295;BME280;7231;59.370;18.016;2022-12-24T12:32:13;101030.66;;;-1.91;100.00
14295;BME280;7231;59.370;18.016;2022-12-24T12:34:51;101030.22;;;-2.08;100.00
14295;BME280;7231;59.370;18.016;2022-12-24T12:37:28;101030.84;;;-2.10;100.00
14295;BME280;7231;59.370;18.016;2022-12-24T12:39:58;101032.41;;;-2.12;99.79
14295;BME280;7231;59.370;18.016;2022-12-24T12:42:30;101033.66;;;-2.07;99.25
14295;BME280;7231;59.370;18.016;2022-12-24T12:45:11;101034.69;;;-2.05;98.42
14295;BME280;7231;59.370;18.016;2022-12-24T12:47:53;101033.16;;;-2.03;98.10
14295;BME280;7231;59.370;18.016;2022-12-24T12:50:32;101029.69;;;-2.04;98.09
14295;BME280;7231;59.370;18.016;2022-12-24T12:53:20;101033.91;;;-2.04;97.52
14295;BME280;7231;59.370;18.016;2022-12-24T12:55:56;101042.69;;;-2.12;96.84
14295;BME280;7231;59.370;18.016;2022-12-24T12:58:30;101035.41;;;-2.38;96.35
14295;BME280;7231;59.370;18.016;2022-12-24T13:01:04;101020.22;;;-2.67;96.36
14295;BME280;7231;59.370;18.016;2022-12-24T13:07:02;101041.38;;;-3.00;96.04